Авиационная погода в Сыктывкаре

Регион: 
Погода METAR: 
UUYY 222100Z 00000MPS 3500 BR NSC M20/M21 Q1026 R18/420248 NOSIG RMK QFE761/1015
Время наблюдения
2022-01-22T21:00:00Z
Температура C
-20.0
Точка росы
-21.0
Направление ветра
0
Скорость ветра (узлы)
0
Метео видимость
2.17
Облачность
CLR
Нижняя граница облачности (футы)
Явления погоды
BR
Условия полета
IFR
Аэропорт подробнее: 
CLR — нет облаков ниже 3000 м
BR – дымка (видимость от 1 до 9 км);